Time;durP1;ratioP1;P1;durP2;ratioP2;P2;SDS_P1;SDS_P2;PMS_P1;PMS_P2;Temp;Humidity;BMP_temperature;BMP_pressure;BME280_temperature;BME280_humidity;BME280_pressure;Samples;Min_cycle;Max_cycle;Signal;HPM_P1;HPM_P2
2021/11/20 00:01:47;;;;;;;21.77;14.00;;;5.30;98.10;;;;;;5078206;28;20224;-89
2021/11/20 00:04:14;;;;;;;21.17;14.70;;;5.40;98.40;;;;;;5083063;28;20220;-90
2021/11/20 00:06:46;;;;;;;20.00;14.37;;;5.40;98.40;;;;;;5080451;28;20211;-91
2021/11/20 00:09:15;;;;;;;23.50;15.37;;;5.50;98.30;;;;;;5083280;28;20216;-91
2021/11/20 00:11:44;;;;;;;28.60;15.47;;;5.40;98.10;;;;;;5082362;28;20346;-90
2021/11/20 00:14:12;;;;;;;21.27;13.93;;;5.40;98.00;;;;;;5080159;28;20216;-90
2021/11/20 00:16:40;;;;;;;27.60;15.47;;;5.30;98.30;;;;;;5085881;28;20201;-90
2021/11/20 00:19:09;;;;;;;22.83;15.60;;;5.30;98.50;;;;;;5085358;28;20235;-90
2021/11/20 00:21:39;;;;;;;24.00;14.70;;;5.30;98.70;;;;;;5082744;28;20231;-89
2021/11/20 00:24:22;;;;;;;19.90;14.03;;;5.40;98.70;;;;;;5090177;28;20224;-93
2021/11/20 00:26:50;;;;;;;21.23;14.43;;;5.40;98.50;;;;;;5085214;28;20218;-91
2021/11/20 00:29:26;;;;;;;26.87;14.97;;;5.40;98.10;;;;;;5080493;28;20375;-90
2021/11/20 00:31:56;;;;;;;20.13;13.83;;;5.40;98.00;;;;;;5082230;28;20236;-90
2021/11/20 00:34:27;;;;;;;21.27;14.33;;;5.20;98.00;;;;;;5080205;28;20252;-91
2021/11/20 00:36:54;;;;;;;26.50;14.80;;;5.30;98.50;;;;;;5078303;28;20198;-90
2021/11/20 00:39:24;;;;;;;21.23;14.77;;;5.20;98.30;;;;;;5076462;28;20230;-90
2021/11/20 00:41:52;;;;;;;20.63;14.57;;;5.30;98.50;;;;;;5083156;28;20244;-91
2021/11/20 00:44:20;;;;;;;23.30;15.33;;;5.30;98.40;;;;;;5085096;28;20232;-90
2021/11/20 00:46:49;;;;;;;21.80;14.47;;;5.30;98.10;;;;;;5084119;28;20205;-91
2021/11/20 00:49:18;;;;;;;20.57;15.00;;;5.30;98.20;;;;;;5088562;28;20581;-91
2021/11/20 00:51:47;;;;;;;23.10;14.70;;;5.30;98.10;;;;;;5082867;28;20336;-90
2021/11/20 00:54:16;;;;;;;21.67;14.47;;;5.40;98.00;;;;;;5086253;28;20582;-91
2021/11/20 00:56:44;;;;;;;20.50;14.43;;;5.40;97.80;;;;;;5087400;28;20204;-91
2021/11/20 00:59:11;;;;;;;19.87;13.90;;;5.30;97.90;;;;;;5090010;28;20609;-91
2021/11/20 01:01:41;;;;;;;20.63;14.00;;;5.30;98.00;;;;;;5085881;28;20588;-90
2021/11/20 01:04:09;;;;;;;22.30;14.33;;;5.40;97.90;;;;;;5082404;28;20239;-90
2021/11/20 01:06:37;;;;;;;20.67;14.73;;;5.40;97.80;;;;;;5087437;28;20208;-91
2021/11/20 01:09:05;;;;;;;20.10;13.97;;;5.30;97.70;;;;;;5086752;28;20224;-90
2021/11/20 01:11:35;;;;;;;27.93;14.80;;;5.20;97.70;;;;;;5087960;28;20287;-90
2021/11/20 01:14:05;;;;;;;21.90;15.10;;;5.10;98.00;;;;;;5076581;28;20235;-91
2021/11/20 01:16:32;;;;;;;22.07;14.90;;;5.10;98.30;;;;;;5087849;28;20219;-89
2021/11/20 01:19:02;;;;;;;22.20;14.07;;;5.10;97.90;;;;;;5076088;28;20688;-89
2021/11/20 01:21:29;;;;;;;19.87;13.90;;;5.20;97.70;;;;;;5078341;28;20221;-90
2021/11/20 01:23:56;;;;;;;21.67;14.30;;;5.20;97.70;;;;;;5089066;28;20231;-89
2021/11/20 01:26:25;;;;;;;24.60;14.00;;;5.20;97.90;;;;;;5091245;28;20211;-90
2021/11/20 01:28:56;;;;;;;23.00;14.73;;;5.20;97.90;;;;;;5088613;28;20248;-89
2021/11/20 01:31:27;;;;;;;21.20;14.20;;;5.20;97.80;;;;;;5076540;28;20201;-90
2021/11/20 01:33:54;;;;;;;21.27;14.10;;;5.20;98.00;;;;;;5086046;28;20243;-90
2021/11/20 01:36:24;;;;;;;20.53;13.77;;;5.20;98.00;;;;;;5075064;28;20288;-90
2021/11/20 01:38:52;;;;;;;30.33;14.60;;;5.20;97.70;;;;;;5092366;28;20234;-89
2021/11/20 01:41:21;;;;;;;24.43;14.00;;;5.20;97.70;;;;;;5088584;28;20228;-90
2021/11/20 01:43:52;;;;;;;19.77;13.33;;;5.10;97.80;;;;;;5087303;28;20685;-89
2021/11/20 01:46:21;;;;;;;24.80;14.03;;;5.10;98.00;;;;;;5091691;28;20204;-90
2021/11/20 01:48:56;;;;;;;20.60;12.53;;;5.10;98.30;;;;;;5082094;28;20221;-91
2021/11/20 01:51:26;;;;;;;24.13;13.77;;;5.10;98.10;;;;;;5087143;28;20211;-89
2021/11/20 01:54:06;;;;;;;19.03;13.30;;;5.10;98.10;;;;;;5077385;28;20256;-91
2021/11/20 01:56:41;;;;;;;24.17;13.63;;;5.10;98.00;;;;;;5083297;28;20232;-90
2021/11/20 01:59:18;;;;;;;25.67;13.77;;;5.10;98.20;;;;;;5081784;28;20222;-90
2021/11/20 02:01:49;;;;;;;31.60;12.87;;;5.00;98.30;;;;;;5082221;28;20687;-90
2021/11/20 02:04:23;;;;;;;19.17;13.67;;;5.00;98.20;;;;;;5088732;28;20232;-90
2021/11/20 02:07:00;;;;;;;16.77;12.10;;;4.90;98.50;;;;;;5089596;28;20228;-89
2021/11/20 02:09:32;;;;;;;25.53;11.80;;;4.90;98.40;;;;;;5077211;28;21011;-90
2021/11/20 02:12:02;;;;;;;20.00;12.03;;;4.90;98.30;;;;;;5076731;28;20215;-89
2021/11/20 02:14:31;;;;;;;17.77;12.03;;;4.80;98.10;;;;;;5080228;28;20238;-90
2021/11/20 02:17:01;;;;;;;22.60;11.23;;;4.90;98.00;;;;;;5091821;28;20681;-89
2021/11/20 02:19:33;;;;;;;16.90;10.53;;;4.90;97.90;;;;;;5084881;28;20225;-90
2021/11/20 02:22:05;;;;;;;37.93;10.90;;;4.80;98.00;;;;;;5087366;28;20217;-91
2021/11/20 02:24:31;;;;;;;15.70;11.30;;;4.80;98.30;;;;;;5076450;28;20225;-89
2021/11/20 02:27:00;;;;;;;17.17;10.63;;;4.80;98.30;;;;;;5086548;28;20204;-90
2021/11/20 02:29:27;;;;;;;15.80;10.63;;;4.80;98.30;;;;;;5078824;28;20234;-91
2021/11/20 02:31:57;;;;;;;21.10;10.83;;;4.80;98.40;;;;;;5080502;28;20193;-90
2021/11/20 02:34:29;;;;;;;19.37;11.50;;;4.80;98.40;;;;;;5080485;28;20245;-89
2021/11/20 02:36:56;;;;;;;27.23;10.30;;;4.90;98.30;;;;;;5081556;28;20200;-90
2021/11/20 02:39:26;;;;;;;21.47;10.63;;;4.90;97.90;;;;;;5090098;28;20784;-90
2021/11/20 02:41:55;;;;;;;13.47;9.50;;;4.80;97.90;;;;;;5079013;28;20216;-90
2021/11/20 02:44:23;;;;;;;12.77;8.77;;;4.80;98.30;;;;;;5071910;28;20227;-90
2021/11/20 02:46:53;;;;;;;16.73;9.20;;;4.90;98.30;;;;;;5079476;28;20189;-90
2021/11/20 02:49:22;;;;;;;14.27;9.20;;;4.90;98.30;;;;;;5081549;28;20753;-90
2021/11/20 02:51:52;;;;;;;15.97;9.17;;;4.90;98.10;;;;;;5084755;28;20201;-91
2021/11/20 02:54:21;;;;;;;13.57;8.80;;;4.80;98.30;;;;;;5078071;28;20220;-89
2021/11/20 02:56:52;;;;;;;13.17;8.73;;;4.80;98.20;;;;;;5090854;28;20199;-89
2021/11/20 02:59:19;;;;;;;10.40;7.67;;;4.90;98.20;;;;;;5081498;28;20225;-91
2021/11/20 03:01:49;;;;;;;11.07;7.77;;;5.00;98.10;;;;;;5089217;28;20224;-90
2021/11/20 03:04:18;;;;;;;11.77;7.70;;;5.00;98.40;;;;;;5090123;28;20248;-90
2021/11/20 03:06:47;;;;;;;10.27;7.47;;;5.10;98.00;;;;;;5085370;28;20198;-89
2021/11/20 03:15:59;;;;;;;9.27;6.80;;;5.10;97.60;;;;;;5081754;28;20215;-90
2021/11/20 03:18:26;;;;;;;10.23;7.23;;;5.00;97.50;;;;;;5086143;28;20204;-89
2021/11/20 03:20:53;;;;;;;10.90;7.40;;;4.90;97.70;;;;;;5085284;28;20705;-93
2021/11/20 03:23:24;;;;;;;10.83;7.33;;;4.80;98.30;;;;;;5075054;28;20205;-89
2021/11/20 03:25:51;;;;;;;11.07;7.70;;;5.00;98.10;;;;;;5077969;28;20234;-91
2021/11/20 03:28:20;;;;;;;11.13;7.83;;;5.10;98.30;;;;;;5085139;28;20655;-91
2021/11/20 03:30:48;;;;;;;10.83;7.00;;;5.10;97.90;;;;;;5083544;28;20693;-91
2021/11/20 03:33:15;;;;;;;11.63;6.93;;;5.00;98.30;;;;;;5090122;28;20193;-92
2021/11/20 03:35:43;;;;;;;11.37;7.63;;;5.00;98.20;;;;;;5084903;28;20212;-92
2021/11/20 03:38:10;;;;;;;9.20;6.57;;;5.00;98.50;;;;;;5082392;28;20193;-91
2021/11/20 03:40:40;;;;;;;9.90;6.50;;;5.10;98.70;;;;;;5087384;28;20234;-91
2021/11/20 03:43:07;;;;;;;10.60;7.33;;;5.30;98.20;;;;;;5078566;28;20193;-91
2021/11/20 03:45:35;;;;;;;9.53;6.77;;;5.30;97.70;;;;;;5084695;28;21007;-91
2021/11/20 03:48:04;;;;;;;11.57;6.70;;;5.40;97.70;;;;;;5080358;28;20659;-92
2021/11/20 03:50:31;;;;;;;8.73;6.63;;;5.30;97.30;;;;;;5087897;28;20694;-92
2021/11/20 03:52:58;;;;;;;9.33;7.00;;;5.10;97.70;;;;;;5087562;28;20209;-92
2021/11/20 03:55:28;;;;;;;9.97;6.97;;;5.00;98.10;;;;;;5087320;28;20228;-91
2021/11/20 03:57:56;;;;;;;10.77;6.97;;;4.90;98.40;;;;;;5085531;28;20204;-91
2021/11/20 04:00:27;;;;;;;9.40;6.77;;;4.90;98.80;;;;;;5084961;28;20693;-90
2021/11/20 04:02:55;;;;;;;9.13;6.47;;;5.00;99.00;;;;;;5088649;28;20200;-92
2021/11/20 04:05:22;;;;;;;8.73;6.47;;;5.20;98.80;;;;;;5084724;28;20717;-91
2021/11/20 04:07:50;;;;;;;9.30;6.00;;;5.30;98.20;;;;;;5080011;28;20213;-92
2021/11/20 04:10:19;;;;;;;10.50;6.70;;;5.30;98.20;;;;;;5080315;28;20232;-91
2021/11/20 04:12:47;;;;;;;12.00;6.93;;;5.30;97.90;;;;;;5086636;28;20218;-91
2021/11/20 04:15:17;;;;;;;9.47;6.43;;;5.10;98.10;;;;;;5082936;28;20668;-92
2021/11/20 04:17:44;;;;;;;9.40;6.67;;;5.00;98.70;;;;;;5079133;28;20574;-91
2021/11/20 04:20:15;;;;;;;10.40;7.33;;;5.00;99.00;;;;;;5079598;28;20217;-90
2021/11/20 04:22:42;;;;;;;8.87;6.53;;;5.10;99.00;;;;;;5082942;28;20971;-92
2021/11/20 04:25:12;;;;;;;12.17;6.90;;;5.20;98.70;;;;;;5089277;28;20216;-91
2021/11/20 04:27:40;;;;;;;9.17;6.47;;;5.30;98.40;;;;;;5085940;28;20198;-90
2021/11/20 04:30:10;;;;;;;8.50;6.30;;;5.30;98.60;;;;;;5077197;28;20221;-92
2021/11/20 04:32:38;;;;;;;8.37;5.90;;;5.40;98.10;;;;;;5087947;28;20195;-91
2021/11/20 04:35:08;;;;;;;8.37;6.33;;;5.40;98.10;;;;;;5088608;28;20694;-91
2021/11/20 04:37:41;;;;;;;8.13;6.73;;;5.30;98.00;;;;;;5091959;28;20206;-90
2021/11/20 04:40:09;;;;;;;10.13;6.20;;;5.30;98.00;;;;;;5092048;28;20216;-91
2021/11/20 04:42:37;;;;;;;8.30;5.57;;;5.30;98.20;;;;;;5095137;28;20251;-92
2021/11/20 04:45:06;;;;;;;8.83;6.00;;;5.20;98.30;;;;;;5095070;28;20675;-90
2021/11/20 04:47:34;;;;;;;9.80;6.50;;;5.30;98.60;;;;;;5090005;28;20208;-91
2021/11/20 04:50:05;;;;;;;9.53;6.37;;;5.40;98.30;;;;;;5077122;28;20217;-91
2021/11/20 04:52:32;;;;;;;8.23;5.93;;;5.50;97.80;;;;;;5091211;28;20337;-91
2021/11/20 04:54:59;;;;;;;7.37;5.80;;;5.50;97.80;;;;;;5081393;28;20223;-91
2021/11/20 04:57:26;;;;;;;7.80;5.83;;;5.50;97.80;;;;;;5087992;28;20209;-91
2021/11/20 04:59:53;;;;;;;8.10;5.77;;;5.60;97.70;;;;;;5090219;28;20227;-91
2021/11/20 05:02:19;;;;;;;9.20;6.17;;;5.60;97.80;;;;;;5087407;28;20244;-92
2021/11/20 05:04:46;;;;;;;7.77;5.93;;;5.50;97.60;;;;;;5091278;28;20220;-92
2021/11/20 05:07:16;;;;;;;8.97;5.70;;;5.30;97.70;;;;;;5083960;28;20216;-91
2021/11/20 05:09:43;;;;;;;8.00;6.37;;;5.10;98.20;;;;;;5092701;28;20699;-91
2021/11/20 05:12:11;;;;;;;6.70;5.60;;;5.10;98.70;;;;;;5081783;28;20197;-91
2021/11/20 05:14:39;;;;;;;7.10;5.50;;;5.20;99.00;;;;;;5088113;28;20725;-90
2021/11/20 05:17:06;;;;;;;5.83;5.07;;;5.30;98.80;;;;;;5095381;28;20193;-91
2021/11/20 05:19:35;;;;;;;7.37;5.70;;;5.40;98.30;;;;;;5086057;28;20235;-91
2021/11/20 05:22:02;;;;;;;7.90;5.87;;;5.60;98.10;;;;;;5081460;28;20216;-93
2021/11/20 05:24:30;;;;;;;8.07;5.73;;;5.60;97.70;;;;;;5087217;28;20255;-90
2021/11/20 05:27:00;;;;;;;7.23;5.93;;;5.60;97.50;;;;;;5088114;28;20203;-90
2021/11/20 05:29:34;;;;;;;7.10;5.87;;;5.60;97.50;;;;;;5091622;28;20948;-91
2021/11/20 05:32:02;;;;;;;7.53;5.50;;;5.60;97.60;;;;;;5088629;28;20597;-92
2021/11/20 05:34:29;;;;;;;8.00;6.20;;;5.60;97.60;;;;;;5086928;28;20285;-90
2021/11/20 05:36:56;;;;;;;9.53;6.00;;;5.70;97.60;;;;;;5080173;28;20205;-91
2021/11/20 05:39:22;;;;;;;7.50;6.17;;;5.50;97.60;;;;;;5079987;28;20224;-91
2021/11/20 05:41:52;;;;;;;7.73;6.10;;;5.40;98.10;;;;;;5084697;28;20220;-91
2021/11/20 05:44:19;;;;;;;10.23;7.00;;;5.40;98.50;;;;;;5085273;28;20266;-91
2021/11/20 05:46:46;;;;;;;7.50;6.10;;;5.50;98.40;;;;;;5078698;28;20197;-92
2021/11/20 05:49:13;;;;;;;6.77;5.90;;;5.60;98.30;;;;;;5086748;28;20227;-91
2021/11/20 05:51:40;;;;;;;7.57;6.00;;;5.60;98.30;;;;;;5093595;28;20200;-91
2021/11/20 05:54:07;;;;;;;7.77;5.83;;;5.60;98.10;;;;;;5092013;28;20232;-91
2021/11/20 05:56:35;;;;;;;7.40;6.03;;;5.70;97.80;;;;;;5087251;28;20210;-90
2021/11/20 05:59:05;;;;;;;8.20;6.63;;;5.80;97.70;;;;;;5084424;28;20199;-91
2021/11/20 06:01:31;;;;;;;7.63;5.67;;;5.60;97.50;;;;;;5082756;28;20209;-90
2021/11/20 06:04:01;;;;;;;7.50;5.70;;;5.60;97.70;;;;;;5083878;28;20197;-91
2021/11/20 06:06:30;;;;;;;8.13;5.87;;;5.70;97.70;;;;;;5084265;28;20200;-91
2021/11/20 06:08:57;;;;;;;7.90;5.63;;;5.70;97.50;;;;;;5082846;28;20709;-91
2021/11/20 06:11:40;;;;;;;6.83;5.83;;;5.80;97.20;;;;;;5088982;28;20199;-90
2021/11/20 06:14:09;;;;;;;8.10;6.30;;;5.70;97.20;;;;;;5080265;28;20192;-92
2021/11/20 06:16:36;;;;;;;8.63;6.23;;;5.60;97.40;;;;;;5070168;28;20196;-91
2021/11/20 06:21:44;;;;;;;6.87;5.77;;;5.60;97.80;;;;;;5089391;28;20220;-93
2021/11/20 06:24:15;;;;;;;7.30;5.53;;;5.70;97.30;;;;;;5079946;28;20518;-91
2021/11/20 06:26:42;;;;;;;6.37;5.10;;;5.60;97.30;;;;;;5090170;28;20200;-92
2021/11/20 06:29:11;;;;;;;6.30;5.03;;;5.70;97.30;;;;;;5091944;28;20229;-92
2021/11/20 06:31:38;;;;;;;6.43;5.30;;;5.70;97.30;;;;;;5085364;28;20208;-90
2021/11/20 06:34:05;;;;;;;6.93;5.53;;;5.70;97.40;;;;;;5083527;28;20204;-92
2021/11/20 06:36:33;;;;;;;6.50;5.67;;;5.80;97.00;;;;;;5082341;28;20211;-92
2021/11/20 06:39:00;;;;;;;6.07;4.93;;;5.90;96.70;;;;;;5086514;28;20675;-92
2021/11/20 06:41:28;;;;;;;6.80;5.67;;;5.90;96.50;;;;;;5085360;28;20295;-92
2021/11/20 06:43:55;;;;;;;6.20;5.40;;;5.80;96.50;;;;;;5081916;28;20228;-92
2021/11/20 06:49:22;;;;;;;6.80;5.07;;;5.90;96.60;;;;;;5083141;28;20305;-92
2021/11/20 06:51:49;;;;;;;7.20;5.60;;;5.90;96.30;;;;;;5081873;28;20197;-94
2021/11/20 06:54:17;;;;;;;7.00;5.40;;;5.90;96.30;;;;;;5082887;28;20247;-91
2021/11/20 06:57:09;;;;;;;6.90;5.23;;;5.90;96.50;;;;;;5067524;28;20213;-92
2021/11/20 07:05:20;;;;;;;7.20;5.33;;;6.00;96.30;;;;;;5079690;28;20687;-91
2021/11/20 07:07:46;;;;;;;7.80;6.23;;;6.00;96.20;;;;;;5080671;28;20196;-92
2021/11/20 07:10:15;;;;;;;8.10;5.50;;;6.00;96.40;;;;;;5080674;28;20220;-91
2021/11/20 07:12:42;;;;;;;6.60;5.47;;;6.10;95.90;;;;;;5076337;28;20205;-91
2021/11/20 07:21:05;;;;;;;5.80;4.80;;;6.20;96.10;;;;;;5043900;28;20205;-93
2021/11/20 07:23:32;;;;;;;6.17;5.07;;;6.40;95.80;;;;;;5079198;28;20220;-93
2021/11/20 07:31:21;;;;;;;4.67;4.10;;;6.40;95.40;;;;;;5051746;28;20642;-93
2021/11/20 07:39:17;;;;;;;5.23;4.37;;;6.50;95.10;;;;;;5058495;28;20235;-93
2021/11/20 07:41:44;;;;;;;6.93;4.90;;;6.50;95.00;;;;;;5076533;28;20205;-94
2021/11/20 07:44:11;;;;;;;6.23;4.93;;;6.60;95.00;;;;;;5074782;28;20589;-94
2021/11/20 07:46:39;;;;;;;6.40;5.30;;;6.60;94.40;;;;;;5079443;28;20201;-94
2021/11/20 07:49:08;;;;;;;6.83;5.53;;;6.70;94.40;;;;;;5060098;28;20241;-93
2021/11/20 07:51:35;;;;;;;7.00;5.50;;;6.70;94.40;;;;;;5079003;28;20364;-93
2021/11/20 07:56:43;;;;;;;8.02;6.13;;;6.80;94.30;;;;;;5042389;28;20209;-94
2021/11/20 08:01:53;;;;;;;7.33;6.23;;;6.80;94.60;;;;;;5047599;28;20250;-92
2021/11/20 08:04:21;;;;;;;9.88;6.78;;;6.90;94.70;;;;;;5048246;28;20232;-92
2021/11/20 08:09:31;;;;;;;9.67;6.80;;;7.00;94.40;;;;;;5077426;28;20224;-92
2021/11/20 08:11:57;;;;;;;10.38;7.18;;;7.00;94.10;;;;;;5074091;28;20268;-92
2021/11/20 08:14:24;;;;;;;9.50;6.93;;;7.00;94.10;;;;;;5098876;28;20239;-91
2021/11/20 08:16:52;;;;;;;8.55;7.05;;;6.80;94.10;;;;;;5091811;28;20227;-92
2021/11/20 08:22:04;;;;;;;6.47;5.60;;;6.60;95.00;;;;;;5081863;28;20242;-91
2021/11/20 08:24:31;;;;;;;7.32;5.55;;;6.70;95.10;;;;;;5096850;28;20691;-91
2021/11/20 08:27:01;;;;;;;5.72;4.90;;;7.00;94.40;;;;;;5099721;28;20230;-91
2021/11/20 08:29:30;;;;;;;7.32;5.60;;;6.90;94.20;;;;;;5098629;28;20216;-90
2021/11/20 08:31:58;;;;;;;5.85;4.88;;;6.90;94.10;;;;;;5089226;28;20200;-89
2021/11/20 08:34:30;;;;;;;6.03;5.28;;;6.90;94.50;;;;;;5073865;28;20252;-91
2021/11/20 08:36:59;;;;;;;6.43;5.25;;;7.10;93.80;;;;;;5094737;28;20272;-89
2021/11/20 08:39:27;;;;;;;6.63;5.15;;;7.10;93.70;;;;;;5094080;28;20284;-88
2021/11/20 08:41:54;;;;;;;7.20;4.68;;;7.30;93.40;;;;;;5095340;28;20205;-87
2021/11/20 08:44:21;;;;;;;6.03;4.53;;;7.50;93.00;;;;;;5093784;28;20237;-89
2021/11/20 08:46:49;;;;;;;6.53;4.43;;;7.70;92.70;;;;;;5073056;28;20201;-90
2021/11/20 08:49:18;;;;;;;7.30;4.18;;;7.60;92.80;;;;;;5091923;28;20224;-89
2021/11/20 08:51:50;;;;;;;6.13;4.47;;;7.60;92.40;;;;;;5097332;28;20632;-88
2021/11/20 08:54:17;;;;;;;7.03;4.65;;;7.60;92.50;;;;;;5102604;28;20293;-90
2021/11/20 08:56:47;;;;;;;6.18;4.53;;;7.40;92.70;;;;;;5103027;28;20202;-90
2021/11/20 08:59:20;;;;;;;5.22;3.92;;;7.40;92.90;;;;;;5084178;28;20688;-92
2021/11/20 09:01:51;;;;;;;5.68;4.20;;;7.60;93.10;;;;;;5097235;28;20200;-91
2021/11/20 09:04:27;;;;;;;5.35;4.38;;;7.90;92.70;;;;;;5085745;28;20309;-91
2021/11/20 09:07:00;;;;;;;5.65;4.20;;;8.10;91.50;;;;;;5070546;28;20205;-90
2021/11/20 09:09:45;;;;;;;6.28;4.68;;;8.10;91.50;;;;;;5086605;28;20228;-91
2021/11/20 09:15:00;;;;;;;5.13;4.35;;;8.30;90.80;;;;;;5085620;28;20547;-91
2021/11/20 09:17:27;;;;;;;7.43;4.22;;;8.50;91.00;;;;;;5088690;28;20216;-92
2021/11/20 09:19:54;;;;;;;4.88;4.10;;;8.50;90.40;;;;;;5089718;28;20620;-91
2021/11/20 09:22:23;;;;;;;5.72;4.35;;;8.50;90.40;;;;;;5096091;28;20283;-93
2021/11/20 09:24:52;;;;;;;5.78;4.70;;;8.60;90.40;;;;;;5098445;28;20227;-94
2021/11/20 09:27:55;;;;;;;5.22;3.95;;;8.30;90.30;;;;;;5077586;28;20644;-93
2021/11/20 09:30:26;;;;;;;4.65;4.15;;;8.60;90.40;;;;;;5094798;28;20704;-92
2021/11/20 09:32:53;;;;;;;5.32;4.05;;;8.50;90.40;;;;;;5080639;28;20204;-93
2021/11/20 09:35:21;;;;;;;7.25;4.47;;;8.70;90.40;;;;;;5062730;28;20638;-92
2021/11/20 09:41:16;;;;;;;4.57;3.70;;;8.80;90.00;;;;;;5081153;28;20232;-91
2021/11/20 10:36:50;;;;;;;3.13;1.80;;;9.10;83.70;;;;;;5058748;28;20679;-92
2021/11/20 11:18:56;;;;;;;2.92;2.47;;;9.30;83.20;;;;;;5098061;28;20256;-94
2021/11/20 11:22:28;;;;;;;2.70;2.45;;;9.50;81.90;;;;;;5086093;28;20292;-92
2021/11/20 11:25:21;;;;;;;3.22;2.80;;;9.50;82.10;;;;;;5077741;28;20233;-91
2021/11/20 11:31:39;;;;;;;3.72;2.90;;;9.20;82.20;;;;;;5078547;28;20205;-92
2021/11/20 11:34:19;;;;;;;4.07;3.67;;;9.40;83.00;;;;;;5093846;28;20192;-91
2021/11/20 11:40:29;;;;;;;3.30;2.78;;;9.40;82.10;;;;;;5055648;28;20233;-92
2021/11/20 11:43:08;;;;;;;5.35;3.42;;;9.30;81.30;;;;;;5057202;28;20226;-92
2021/11/20 11:46:01;;;;;;;3.42;3.13;;;9.00;84.70;;;;;;5057886;28;20228;-92
2021/11/20 11:48:47;;;;;;;3.85;2.90;;;9.30;83.30;;;;;;5061981;28;20293;-89
2021/11/20 11:51:23;;;;;;;3.95;3.50;;;9.30;82.80;;;;;;5064170;28;20592;-89
2021/11/20 11:54:19;;;;;;;3.10;2.80;;;9.30;82.80;;;;;;5073305;28;20197;-89
2021/11/20 11:56:59;;;;;;;5.00;4.50;;;9.40;82.00;;;;;;5074364;28;20217;-88
2021/11/20 11:59:49;;;;;;;3.60;3.13;;;9.60;79.40;;;;;;5078630;28;20229;-88
2021/11/20 12:02:18;;;;;;;4.00;3.60;;;9.30;79.10;;;;;;5065615;28;20232;-88
2021/11/20 12:04:47;;;;;;;4.22;3.35;;;9.00;81.40;;;;;;5067153;28;20233;-89
2021/11/20 12:07:45;;;;;;;3.58;3.28;;;9.00;82.60;;;;;;5072967;28;20209;-89
2021/11/20 12:10:30;;;;;;;5.35;3.60;;;9.30;82.20;;;;;;5067406;28;20245;-90
2021/11/20 12:13:03;;;;;;;3.58;3.25;;;9.40;80.60;;;;;;5070251;28;20198;-89
2021/11/20 12:15:35;;;;;;;4.63;3.70;;;9.50;79.90;;;;;;5069507;28;20225;-89
2021/11/20 12:18:12;;;;;;;4.00;3.60;;;9.30;81.20;;;;;;5067562;28;20287;-88
2021/11/20 12:20:52;;;;;;;4.57;3.25;;;9.50;82.20;;;;;;5074320;28;20220;-89
2021/11/20 12:23:34;;;;;;;5.47;4.97;;;9.80;80.60;;;;;;5072076;28;20281;-89
2021/11/20 12:26:15;;;;;;;4.13;3.45;;;10.10;80.10;;;;;;5083712;28;20226;-87
2021/11/20 12:28:59;;;;;;;3.67;3.00;;;10.60;77.40;;;;;;5078078;28;20198;-88
2021/11/20 12:31:51;;;;;;;4.70;4.07;;;10.30;73.30;;;;;;5074475;28;20260;-89
2021/11/20 12:34:31;;;;;;;5.53;3.67;;;10.00;75.10;;;;;;5080429;28;20233;-88
2021/11/20 12:37:13;;;;;;;4.57;3.92;;;10.30;75.60;;;;;;5082218;28;20204;-89
2021/11/20 12:39:55;;;;;;;4.20;3.80;;;10.80;72.80;;;;;;5082287;28;20225;-88
2021/11/20 12:42:51;;;;;;;4.20;3.80;;;10.80;72.30;;;;;;5086888;28;20189;-88
2021/11/20 12:45:34;;;;;;;4.40;4.00;;;11.00;67.50;;;;;;5080975;28;20224;-88
2021/11/20 12:48:34;;;;;;;5.03;4.35;;;10.60;69.90;;;;;;5079928;28;20196;-88
2021/11/20 12:51:06;;;;;;;24.48;16.38;;;10.30;73.30;;;;;;5081815;28;20303;-89
2021/11/20 12:53:38;;;;;;;9.23;7.30;;;10.10;75.60;;;;;;5062992;28;20236;-88
2021/11/20 12:56:22;;;;;;;90.53;67.47;;;10.50;69.10;;;;;;5061459;28;20221;-89
2021/11/20 12:58:54;;;;;;;19.15;15.20;;;10.60;72.30;;;;;;5089212;28;20189;-88
2021/11/20 13:01:24;;;;;;;7.85;6.32;;;10.70;67.50;;;;;;5089876;28;20311;-89
2021/11/20 13:04:04;;;;;;;6.57;5.75;;;10.60;70.90;;;;;;5083127;28;20281;-89
2021/11/20 13:06:36;;;;;;;47.40;33.72;;;10.60;69.40;;;;;;5089110;28;20216;-89
2021/11/20 13:09:08;;;;;;;26.35;18.92;;;10.90;64.50;;;;;;5080418;28;20280;-88
2021/11/20 13:14:25;;;;;;;7.82;6.43;;;10.50;68.00;;;;;;5082264;28;20221;-89
2021/11/20 13:17:01;;;;;;;9.98;8.20;;;10.30;66.90;;;;;;5085933;28;20268;-89
2021/11/20 13:19:31;;;;;;;10.43;8.70;;;10.20;71.30;;;;;;5069909;28;20238;-89
2021/11/20 13:22:13;;;;;;;9.45;6.68;;;10.50;70.60;;;;;;5079258;28;20209;-89
2021/11/20 13:24:49;;;;;;;6.25;5.38;;;10.90;67.80;;;;;;5080611;28;20221;-89
2021/11/20 13:27:53;;;;;;;5.50;5.00;;;10.60;66.70;;;;;;5089794;28;20731;-89
2021/11/20 13:30:22;;;;;;;6.95;5.50;;;10.40;68.40;;;;;;5084067;28;20220;-88
2021/11/20 13:32:51;;;;;;;6.72;5.20;;;10.30;69.60;;;;;;5082290;28;20536;-89
2021/11/20 13:35:22;;;;;;;7.82;5.03;;;10.10;70.90;;;;;;5084221;28;20225;-88
2021/11/20 13:37:57;;;;;;;6.50;4.85;;;10.10;69.60;;;;;;5076321;28;20572;-88
2021/11/20 13:40:28;;;;;;;24.30;18.02;;;10.40;70.30;;;;;;5075346;28;20225;-88
2021/11/20 13:42:57;;;;;;;18.60;14.07;;;10.50;67.70;;;;;;5087863;28;20227;-89
2021/11/20 13:45:26;;;;;;;28.60;20.70;;;10.30;69.90;;;;;;5083984;28;20231;-88
2021/11/20 13:47:54;;;;;;;19.83;12.00;;;10.30;71.20;;;;;;5091490;28;20208;-89
2021/11/20 13:50:21;;;;;;;7.80;5.20;;;10.20;71.20;;;;;;5087974;28;20228;-88
2021/11/20 13:52:49;;;;;;;7.10;4.78;;;10.20;68.90;;;;;;5095024;28;20217;-88
2021/11/20 13:55:19;;;;;;;4.82;4.28;;;10.00;70.50;;;;;;5087962;28;20235;-88
2021/11/20 13:57:49;;;;;;;7.38;5.10;;;9.90;74.90;;;;;;5083387;28;20228;-88
2021/11/20 14:00:20;;;;;;;5.57;4.32;;;9.60;74.50;;;;;;5091804;28;20236;-89
2021/11/20 14:02:50;;;;;;;5.80;4.38;;;9.30;75.10;;;;;;5078690;28;20269;-90
2021/11/20 14:05:18;;;;;;;6.07;4.72;;;9.00;79.40;;;;;;5077836;28;20250;-88
2021/11/20 14:07:46;;;;;;;5.35;4.70;;;8.80;79.10;;;;;;5084886;28;20607;-88
2021/11/20 14:10:16;;;;;;;5.45;4.88;;;8.50;81.70;;;;;;5085335;28;20297;-88
2021/11/20 14:12:59;;;;;;;5.53;4.50;;;8.50;83.30;;;;;;5079799;28;20246;-88
2021/11/20 14:15:27;;;;;;;5.22;4.68;;;8.40;83.60;;;;;;5077506;28;20231;-89
2021/11/20 14:18:01;;;;;;;6.07;4.20;;;8.40;85.00;;;;;;5082286;28;20205;-88
2021/11/20 14:20:28;;;;;;;5.65;4.07;;;8.50;86.10;;;;;;5084706;28;20232;-89
2021/11/20 14:22:55;;;;;;;78.03;54.33;;;8.70;82.80;;;;;;5077122;28;20211;-89
2021/11/20 14:25:24;;;;;;;64.82;46.80;;;9.00;83.20;;;;;;5058198;28;20236;-88
2021/11/20 14:27:58;;;;;;;17.85;13.95;;;8.90;82.40;;;;;;5084891;28;20206;-88
2021/11/20 14:30:27;;;;;;;29.48;21.15;;;9.10;80.60;;;;;;5080072;28;20225;-88
2021/11/20 14:33:06;;;;;;;5.05;3.95;;;9.40;81.80;;;;;;5080616;28;20197;-89
2021/11/20 14:35:33;;;;;;;4.75;3.90;;;9.30;78.30;;;;;;5072977;28;20225;-88
2021/11/20 14:38:00;;;;;;;6.15;4.22;;;9.10;78.60;;;;;;5077480;28;20207;-88
2021/11/20 14:40:28;;;;;;;5.25;4.22;;;8.90;80.10;;;;;;5076386;28;20636;-88
2021/11/20 14:42:56;;;;;;;5.65;4.30;;;8.80;81.80;;;;;;5088306;28;20211;-89
2021/11/20 14:45:26;;;;;;;6.40;4.75;;;8.70;83.30;;;;;;5074387;28;20242;-88
2021/11/20 14:47:57;;;;;;;6.18;4.15;;;8.60;82.50;;;;;;5064241;28;20205;-88
2021/11/20 14:50:26;;;;;;;4.43;4.03;;;8.40;85.00;;;;;;5087290;28;20224;-88
2021/11/20 14:53:02;;;;;;;6.10;4.28;;;8.40;84.90;;;;;;5086577;28;20202;-88
2021/11/20 14:55:38;;;;;;;6.22;4.82;;;8.30;85.20;;;;;;5086609;28;20254;-88
2021/11/20 14:58:05;;;;;;;6.30;4.90;;;8.20;85.70;;;;;;5090353;28;20196;-87
2021/11/20 15:00:32;;;;;;;6.15;5.00;;;8.10;85.80;;;;;;5080728;28;20565;-88
2021/11/20 15:03:01;;;;;;;6.30;5.30;;;8.10;86.30;;;;;;5093184;28;20203;-88
2021/11/20 15:05:28;;;;;;;5.10;4.57;;;8.10;87.10;;;;;;5084602;28;20683;-88
2021/11/20 15:07:55;;;;;;;5.00;4.15;;;7.90;87.00;;;;;;5092765;28;20206;-89
2021/11/20 15:10:22;;;;;;;4.78;4.13;;;7.80;87.90;;;;;;5088547;28;20236;-88
2021/11/20 15:12:50;;;;;;;5.05;4.43;;;7.90;88.70;;;;;;5076336;28;20200;-89
2021/11/20 15:15:18;;;;;;;4.95;4.45;;;7.80;88.70;;;;;;5081269;28;20691;-89
2021/11/20 15:17:45;;;;;;;6.22;5.10;;;7.90;90.20;;;;;;5079381;28;20201;-88
2021/11/20 15:20:15;;;;;;;5.40;4.80;;;7.70;89.10;;;;;;5072134;28;20229;-88
2021/11/20 15:22:44;;;;;;;5.35;4.75;;;7.60;90.10;;;;;;5078783;28;20202;-88
2021/11/20 15:25:13;;;;;;;5.38;4.88;;;7.50;90.10;;;;;;5075216;28;20569;-88
2021/11/20 15:27:40;;;;;;;5.22;4.43;;;7.50;90.10;;;;;;5072044;28;20209;-88
2021/11/20 15:30:09;;;;;;;5.60;4.55;;;7.30;90.40;;;;;;5078930;28;20229;-89
2021/11/20 15:32:36;;;;;;;5.70;4.70;;;7.30;90.70;;;;;;5076054;28;20205;-89
2021/11/20 15:35:03;;;;;;;4.85;4.35;;;7.10;91.20;;;;;;5078625;28;20239;-88
2021/11/20 15:37:32;;;;;;;6.20;4.90;;;7.30;91.50;;;;;;5077747;28;20264;-88
2021/11/20 15:39:59;;;;;;;5.18;4.55;;;7.40;91.20;;;;;;5074008;28;20710;-88
2021/11/20 15:42:26;;;;;;;6.85;4.70;;;7.50;90.90;;;;;;5069234;28;20265;-88
2021/11/20 15:44:53;;;;;;;5.72;5.07;;;7.60;90.80;;;;;;5084346;28;20237;-89